createdAt,value
2017-11-17T00:01:56.381Z,57.97
2017-11-17T00:04:23.966Z,54.90
2017-11-17T00:06:51.500Z,49.25
2017-11-17T00:09:19.078Z,46.42
2017-11-17T00:11:46.615Z,46.70
2017-11-17T00:14:14.193Z,52.45
2017-11-17T00:16:41.729Z,45.97
2017-11-17T00:19:09.304Z,51.15
2017-11-17T00:21:36.848Z,46.33
2017-11-17T00:24:04.430Z,43.67
2017-11-17T00:26:31.967Z,47.60
2017-11-17T00:28:59.547Z,48.45
2017-11-17T00:31:27.082Z,51.90
2017-11-17T00:33:54.661Z,55.08
2017-11-17T00:36:22.201Z,49.63
2017-11-17T00:38:49.747Z,43.83
2017-11-17T00:41:17.329Z,52.20
2017-11-17T00:43:44.864Z,48.38
2017-11-17T00:46:12.441Z,53.90
2017-11-17T00:48:39.977Z,51.13
2017-11-17T00:51:07.556Z,53.60
2017-11-17T00:53:35.109Z,45.88
2017-11-17T00:56:02.682Z,41.92
2017-11-17T00:58:30.222Z,45.30
2017-11-17T01:00:57.808Z,41.70
2017-11-17T01:03:25.350Z,40.35
2017-11-17T01:05:52.930Z,40.85
2017-11-17T01:08:20.473Z,39.50
2017-11-17T01:10:48.051Z,52.40
2017-11-17T01:13:15.594Z,48.90
2017-11-17T01:15:43.168Z,43.30
2017-11-17T01:18:10.713Z,44.80
2017-11-17T01:20:38.294Z,50.08
2017-11-17T01:23:05.835Z,43.30
2017-11-17T01:25:33.411Z,41.90
2017-11-17T01:28:00.956Z,44.30
2017-11-17T01:30:28.531Z,44.65
2017-11-17T01:32:56.069Z,48.30
2017-11-17T01:35:23.655Z,46.90
2017-11-17T01:37:51.207Z,41.10
2017-11-17T01:40:18.786Z,45.83
2017-11-17T01:42:46.322Z,48.45
2017-11-17T01:45:13.893Z,55.17
2017-11-17T01:47:41.435Z,45.40
2017-11-17T01:50:09.014Z,51.85
2017-11-17T01:52:36.561Z,52.25
2017-11-17T01:55:04.130Z,51.88
2017-11-17T01:57:31.671Z,48.83
2017-11-17T01:59:59.254Z,57.88
2017-11-17T02:02:26.795Z,46.47
2017-11-17T02:04:54.380Z,51.47
2017-11-17T02:07:21.919Z,48.05
2017-11-17T02:09:49.497Z,51.95
2017-11-17T02:12:17.036Z,49.45
2017-11-17T02:14:44.616Z,46.53
2017-11-17T02:17:12.162Z,51.83
2017-11-17T02:19:39.736Z,50.05
2017-11-17T02:22:08.901Z,56.92
2017-11-17T02:24:36.474Z,62.53
2017-11-17T02:27:04.007Z,57.90
2017-11-17T02:29:31.591Z,53.15
2017-11-17T02:31:59.129Z,60.08
2017-11-17T02:34:26.706Z,50.45
2017-11-17T02:36:54.240Z,53.53
2017-11-17T02:39:21.816Z,47.08
2017-11-17T02:41:49.366Z,49.25
2017-11-17T02:44:16.941Z,44.25
2017-11-17T02:46:44.489Z,46.72
2017-11-17T02:49:12.064Z,46.37
2017-11-17T02:51:39.604Z,44.33
2017-11-17T02:54:07.182Z,49.28
2017-11-17T02:56:34.720Z,50.00
2017-11-17T02:59:02.293Z,53.63
2017-11-17T03:01:29.833Z,40.95
2017-11-17T03:03:57.410Z,38.75
2017-11-17T03:06:24.954Z,42.47
2017-11-17T03:08:52.500Z,42.10
2017-11-17T03:11:20.078Z,37.00
2017-11-17T03:13:47.627Z,40.22
2017-11-17T03:16:15.213Z,38.45
2017-11-17T03:18:42.790Z,40.28
2017-11-17T03:21:10.333Z,35.92
2017-11-17T03:23:37.913Z,34.83
2017-11-17T03:26:05.458Z,37.55
2017-11-17T03:28:33.039Z,34.20
2017-11-17T03:31:00.580Z,38.53
2017-11-17T03:33:28.161Z,30.65
2017-11-17T03:35:55.703Z,32.22
2017-11-17T03:38:23.277Z,33.33
2017-11-17T03:40:50.822Z,37.47
2017-11-17T03:43:18.402Z,38.10
2017-11-17T03:45:45.947Z,31.33
2017-11-17T03:48:13.520Z,31.02
2017-11-17T03:50:41.078Z,33.60
2017-11-17T03:53:08.651Z,28.70
2017-11-17T03:55:36.184Z,34.25
2017-11-17T03:58:03.767Z,35.15
2017-11-17T04:00:31.387Z,39.28
2017-11-17T04:02:58.962Z,44.42
2017-11-17T04:05:26.504Z,44.17
2017-11-17T04:07:54.082Z,43.40
2017-11-17T04:10:22.385Z,41.08
2017-11-17T04:12:50.001Z,41.85
2017-11-17T04:15:17.533Z,47.35
2017-11-17T04:17:45.879Z,44.75
2017-11-17T04:20:13.416Z,48.85
2017-11-17T04:22:40.999Z,43.95
2017-11-17T04:25:08.533Z,45.55
2017-11-17T04:27:36.108Z,42.53
2017-11-17T04:30:03.647Z,46.65
2017-11-17T04:32:31.222Z,42.88
2017-11-17T04:34:58.767Z,43.22
2017-11-17T04:37:26.345Z,48.28
2017-11-17T04:39:53.880Z,46.03
2017-11-17T04:42:21.456Z,45.30
2017-11-17T04:44:49.001Z,48.35
2017-11-17T04:47:16.577Z,48.03
2017-11-17T04:49:44.118Z,48.75
2017-11-17T04:52:11.696Z,57.00
2017-11-17T04:54:39.235Z,54.58
2017-11-17T04:57:06.809Z,47.55
2017-11-17T04:59:34.351Z,53.45
2017-11-17T05:02:01.931Z,51.17
2017-11-17T05:04:29.470Z,55.40
2017-11-17T05:06:57.046Z,51.50
2017-11-17T05:09:24.580Z,55.40
2017-11-17T05:11:52.169Z,50.75
2017-11-17T05:14:19.706Z,59.63
2017-11-17T05:16:47.256Z,54.25
2017-11-17T05:19:14.833Z,55.78
2017-11-17T05:21:42.375Z,55.28
2017-11-17T05:24:09.955Z,55.12
2017-11-17T05:26:37.499Z,49.42
2017-11-17T05:29:05.074Z,54.65
2017-11-17T05:31:32.611Z,54.03
2017-11-17T05:34:00.186Z,48.65
2017-11-17T05:36:27.726Z,50.40
2017-11-17T05:38:55.304Z,53.70
2017-11-17T05:41:22.844Z,49.58
2017-11-17T05:43:50.413Z,51.35
2017-11-17T05:46:17.955Z,55.33
2017-11-17T05:48:46.301Z,48.30
2017-11-17T05:51:13.839Z,46.75
2017-11-17T05:53:41.417Z,47.80
2017-11-17T05:56:08.959Z,52.33
2017-11-17T05:58:36.537Z,49.70
2017-11-17T06:01:04.081Z,47.08
2017-11-17T06:03:31.654Z,45.20
2017-11-17T06:05:59.207Z,51.88
2017-11-17T06:08:26.782Z,48.30
2017-11-17T06:10:54.328Z,58.75
2017-11-17T06:13:21.900Z,48.08
2017-11-17T06:15:49.436Z,56.47
2017-11-17T06:18:17.016Z,58.25
2017-11-17T06:20:44.551Z,61.35
2017-11-17T06:23:12.125Z,54.40
2017-11-17T06:25:39.666Z,56.28
2017-11-17T06:28:07.246Z,56.05
2017-11-17T06:30:34.784Z,49.42
2017-11-17T06:33:02.373Z,60.65
2017-11-17T06:35:29.908Z,51.72
2017-11-17T06:37:57.493Z,54.35
2017-11-17T06:40:25.116Z,59.70
2017-11-17T06:42:52.690Z,64.68
2017-11-17T06:45:20.234Z,59.65
2017-11-17T06:47:47.857Z,52.05
2017-11-17T06:50:16.276Z,53.60
2017-11-17T06:52:43.850Z,53.87
2017-11-17T06:55:11.395Z,54.35
2017-11-17T06:57:38.973Z,49.95
2017-11-17T07:00:06.514Z,60.10
2017-11-17T07:02:34.090Z,59.88
2017-11-17T07:05:01.624Z,58.13
2017-11-17T07:07:29.194Z,56.13
2017-11-17T07:09:56.741Z,53.17
2017-11-17T07:12:24.318Z,57.13
2017-11-17T07:14:51.872Z,66.85
2017-11-17T07:17:19.452Z,59.60
2017-11-17T07:19:46.983Z,55.58
2017-11-17T07:22:14.567Z,65.07
2017-11-17T07:24:42.119Z,61.90
2017-11-17T07:27:09.705Z,52.38
2017-11-17T07:29:37.245Z,55.90
2017-11-17T07:32:04.818Z,64.35
2017-11-17T07:34:32.359Z,61.65
2017-11-17T07:36:59.945Z,65.37
2017-11-17T07:39:27.490Z,63.08
2017-11-17T07:41:55.069Z,55.30
2017-11-17T07:44:22.609Z,61.05
2017-11-17T07:46:50.181Z,63.95
2017-11-17T07:49:17.727Z,62.45
2017-11-17T07:51:45.306Z,64.97
2017-11-17T07:54:12.846Z,63.45
2017-11-17T07:56:40.420Z,70.07
2017-11-17T07:59:07.959Z,65.12
2017-11-17T08:01:35.533Z,68.03
2017-11-17T08:04:03.070Z,68.03
2017-11-17T08:06:30.647Z,63.60
2017-11-17T08:08:58.186Z,68.10
2017-11-17T08:11:25.771Z,67.25
2017-11-17T08:13:53.318Z,67.47
2017-11-17T08:16:20.896Z,64.62
2017-11-17T08:18:48.441Z,64.12
2017-11-17T08:21:16.012Z,66.18
2017-11-17T08:23:43.549Z,68.72
2017-11-17T08:26:11.135Z,85.07
2017-11-17T08:28:38.719Z,67.00
2017-11-17T08:31:07.058Z,69.53
2017-11-17T08:33:34.603Z,73.57
2017-11-17T08:36:02.180Z,80.28
2017-11-17T08:38:29.724Z,63.08
2017-11-17T08:40:57.316Z,77.90
2017-11-17T08:43:24.854Z,71.68
2017-11-17T08:45:52.403Z,75.45
2017-11-17T08:48:20.003Z,73.40
2017-11-17T08:50:48.331Z,78.40
2017-11-17T08:53:15.928Z,76.45
2017-11-17T08:55:43.473Z,76.07
2017-11-17T08:58:11.049Z,72.10
2017-11-17T09:00:38.589Z,72.87
2017-11-17T09:03:06.162Z,71.32
2017-11-17T09:05:33.700Z,67.37
2017-11-17T09:08:01.280Z,69.82
2017-11-17T09:10:28.818Z,73.25
2017-11-17T09:12:56.393Z,76.22
2017-11-17T09:15:23.934Z,76.60
2017-11-17T09:17:51.511Z,76.37
2017-11-17T09:20:19.100Z,72.90
2017-11-17T09:22:47.450Z,71.82
2017-11-17T09:25:14.989Z,72.40
2017-11-17T09:27:42.567Z,70.18
2017-11-17T09:30:10.115Z,65.55
2017-11-17T09:32:37.691Z,74.15
2017-11-17T09:35:05.234Z,68.25
2017-11-17T09:37:32.889Z,71.47
2017-11-17T09:40:00.436Z,59.92
2017-11-17T09:42:28.015Z,67.18
2017-11-17T09:44:55.549Z,60.35
2017-11-17T09:47:23.130Z,53.42
2017-11-17T09:49:50.664Z,52.95
2017-11-17T09:52:19.009Z,67.95
2017-11-17T09:54:46.550Z,67.15
2017-11-17T09:57:14.125Z,65.30
2017-11-17T09:59:41.664Z,67.25
2017-11-17T10:02:09.243Z,71.22
2017-11-17T10:04:37.550Z,69.65
2017-11-17T10:07:05.889Z,65.10
2017-11-17T10:09:33.422Z,67.90
2017-11-17T10:12:01.079Z,70.75
2017-11-17T10:14:28.622Z,67.20
2017-11-17T10:16:56.219Z,64.20
2017-11-17T10:19:23.766Z,59.50
2017-11-17T10:21:51.342Z,62.85
2017-11-17T10:24:18.883Z,52.72
2017-11-17T10:26:46.462Z,60.42
2017-11-17T10:29:14.000Z,63.22
2017-11-17T10:31:41.577Z,60.35
2017-11-17T10:34:09.118Z,53.13
2017-11-17T10:36:36.694Z,61.53
2017-11-17T10:39:04.225Z,62.17
2017-11-17T10:41:31.811Z,57.50
2017-11-17T10:43:59.353Z,53.17
2017-11-17T10:46:26.933Z,54.00
2017-11-17T10:48:54.468Z,50.92
2017-11-17T10:51:22.041Z,49.47
2017-11-17T10:53:49.583Z,50.97
2017-11-17T10:56:19.102Z,53.15
2017-11-17T10:58:46.643Z,49.20
2017-11-17T11:01:14.224Z,51.63
2017-11-17T11:03:41.762Z,58.03
2017-11-17T11:06:09.343Z,51.67
2017-11-17T11:08:36.882Z,56.37
2017-11-17T11:11:10.222Z,52.05
2017-11-17T11:13:37.768Z,56.72
2017-11-17T11:16:05.313Z,50.30
2017-11-17T11:18:32.893Z,51.97
2017-11-17T11:21:00.444Z,61.05
2017-11-17T11:23:28.032Z,54.33
2017-11-17T11:25:55.568Z,51.22
2017-11-17T11:28:23.150Z,49.70
2017-11-17T11:30:50.688Z,56.40
2017-11-17T11:33:18.260Z,52.92
2017-11-17T11:35:45.793Z,52.20
2017-11-17T11:38:13.369Z,54.90
2017-11-17T11:40:40.910Z,59.03
2017-11-17T11:43:08.503Z,60.53
2017-11-17T11:45:36.042Z,58.33
2017-11-17T11:48:03.616Z,52.92
2017-11-17T11:50:31.166Z,57.85
2017-11-17T11:52:58.743Z,58.63
2017-11-17T11:55:26.295Z,50.50
2017-11-17T11:57:53.869Z,54.75
2017-11-17T12:00:21.405Z,55.25
2017-11-17T12:02:48.978Z,62.88
2017-11-17T12:05:16.523Z,57.92
2017-11-17T12:07:44.097Z,58.55
2017-11-17T12:10:11.639Z,60.38
2017-11-17T12:12:39.283Z,56.65
2017-11-17T12:15:06.835Z,58.65
2017-11-17T12:17:34.419Z,62.67
2017-11-17T12:20:01.967Z,55.10
2017-11-17T12:22:29.555Z,61.90
2017-11-17T12:24:57.099Z,60.50
2017-11-17T12:27:24.682Z,62.50
2017-11-17T12:29:52.226Z,64.45
2017-11-17T12:32:19.802Z,59.63
2017-11-17T12:34:47.353Z,56.30
2017-11-17T12:37:15.705Z,58.58
2017-11-17T12:39:44.206Z,68.78
2017-11-17T12:42:11.789Z,57.15
2017-11-17T12:44:40.278Z,58.17
2017-11-17T12:47:08.624Z,53.45
2017-11-17T12:49:36.164Z,57.35
2017-11-17T12:52:03.759Z,59.78
2017-11-17T12:54:31.306Z,57.22
2017-11-17T12:56:58.888Z,57.50
2017-11-17T12:59:27.206Z,48.38
2017-11-17T13:01:54.880Z,52.22
2017-11-17T13:04:22.430Z,57.33
2017-11-17T13:06:50.015Z,57.53
2017-11-17T13:09:17.563Z,53.20
2017-11-17T13:11:45.147Z,55.22
2017-11-17T13:14:12.695Z,51.13
2017-11-17T13:16:40.273Z,54.93
2017-11-17T13:19:07.826Z,51.13
2017-11-17T13:21:35.406Z,51.73
2017-11-17T13:24:03.719Z,50.55
2017-11-17T13:26:31.319Z,45.28
2017-11-17T13:28:58.869Z,49.77
2017-11-17T13:31:26.471Z,52.70
2017-11-17T13:33:54.778Z,53.77
2017-11-17T13:36:22.354Z,49.13
2017-11-17T13:38:49.897Z,51.17
2017-11-17T13:41:17.473Z,47.13
2017-11-17T13:43:45.018Z,55.70
2017-11-17T13:46:12.557Z,54.77
2017-11-17T13:48:40.901Z,49.07
2017-11-17T13:51:08.449Z,49.17
2017-11-17T13:53:36.300Z,52.40
2017-11-17T13:56:03.841Z,48.93
2017-11-17T13:58:31.418Z,58.73
2017-11-17T14:00:58.974Z,42.60
2017-11-17T14:03:26.550Z,51.60
2017-11-17T14:05:54.088Z,52.53
2017-11-17T14:08:21.673Z,50.60
2017-11-17T14:10:49.224Z,50.77
2017-11-17T14:13:16.805Z,53.00
2017-11-17T14:15:44.342Z,47.57
2017-11-17T14:18:11.915Z,54.00
2017-11-17T14:20:39.457Z,52.00
2017-11-17T14:23:07.048Z,56.97
2017-11-17T14:25:34.587Z,48.60
2017-11-17T14:28:02.186Z,49.17
2017-11-17T14:30:30.495Z,44.03
2017-11-17T14:32:58.069Z,51.60
2017-11-17T14:35:25.621Z,45.70
2017-11-17T14:37:53.200Z,52.07
2017-11-17T14:40:20.737Z,52.90
2017-11-17T14:42:48.319Z,47.73
2017-11-17T14:45:15.872Z,52.93
2017-11-17T14:47:43.448Z,53.70
2017-11-17T14:50:10.996Z,52.30
2017-11-17T14:52:38.572Z,49.00
2017-11-17T14:55:06.119Z,52.90
2017-11-17T14:57:33.691Z,55.43
2017-11-17T15:00:01.240Z,56.63
2017-11-17T15:02:28.828Z,53.03
2017-11-17T15:04:56.365Z,49.97
2017-11-17T15:07:23.947Z,53.72
2017-11-17T15:09:51.498Z,51.83
2017-11-17T15:12:19.086Z,55.13
2017-11-17T15:14:47.400Z,49.40
2017-11-17T15:17:14.977Z,49.33
2017-11-17T15:19:42.520Z,52.37
2017-11-17T15:22:10.100Z,51.03
2017-11-17T15:24:37.665Z,51.07
2017-11-17T15:27:05.260Z,56.93
2017-11-17T15:29:33.564Z,56.17
2017-11-17T15:32:01.142Z,60.67
2017-11-17T15:34:28.748Z,56.13
2017-11-17T15:36:56.328Z,52.50
2017-11-17T15:39:24.640Z,56.73
2017-11-17T15:41:52.219Z,58.53
2017-11-17T15:44:19.774Z,56.10
2017-11-17T15:46:47.353Z,56.93
2017-11-17T15:49:14.917Z,56.13
2017-11-17T15:51:42.493Z,53.53
2017-11-17T15:54:10.807Z,55.73
2017-11-17T15:56:38.381Z,54.53
2017-11-17T15:59:05.929Z,50.97
2017-11-17T16:01:33.515Z,54.97
2017-11-17T16:04:01.058Z,50.53
2017-11-17T16:06:28.652Z,52.50
2017-11-17T16:08:56.193Z,47.20
2017-11-17T16:11:23.782Z,56.05
2017-11-17T16:13:51.320Z,51.93
2017-11-17T16:16:18.907Z,50.80
2017-11-17T16:18:47.221Z,54.05
2017-11-17T16:21:14.820Z,52.80
2017-11-17T16:23:42.353Z,48.00
2017-11-17T16:26:09.930Z,52.97
2017-11-17T16:28:37.477Z,48.08
2017-11-17T16:31:05.058Z,53.83
2017-11-17T16:33:32.599Z,48.87
2017-11-17T16:36:00.178Z,50.97
2017-11-17T16:38:27.717Z,51.93
2017-11-17T16:40:55.296Z,52.37
2017-11-17T16:43:22.855Z,50.03
2017-11-17T16:45:50.434Z,45.70
2017-11-17T16:48:17.982Z,48.27
2017-11-17T16:50:45.565Z,48.08
2017-11-17T16:53:13.879Z,47.97
2017-11-17T16:55:41.466Z,48.17
2017-11-17T16:58:09.010Z,49.57
2017-11-17T17:00:36.589Z,50.57
2017-11-17T17:03:04.132Z,51.97
2017-11-17T17:05:31.722Z,46.60
2017-11-17T17:07:59.273Z,47.80
2017-11-17T17:10:26.858Z,50.80
2017-11-17T17:12:56.257Z,50.70
2017-11-17T17:15:24.605Z,46.15
2017-11-17T17:17:52.154Z,48.25
2017-11-17T17:20:19.743Z,55.20
2017-11-17T17:22:48.073Z,50.55
2017-11-17T17:25:15.670Z,45.80
2017-11-17T17:27:43.209Z,46.13
2017-11-17T17:30:10.801Z,46.65
2017-11-17T17:32:38.343Z,41.80
2017-11-17T17:35:05.956Z,54.17
2017-11-17T17:37:33.519Z,50.60
2017-11-17T17:40:01.112Z,51.60
2017-11-17T17:42:28.777Z,48.80
2017-11-17T17:44:56.374Z,44.38
2017-11-17T17:47:23.994Z,48.08
2017-11-17T17:49:51.593Z,42.47
2017-11-17T17:52:19.137Z,47.13
2017-11-17T17:54:46.898Z,42.97
2017-11-17T17:57:14.452Z,45.58
2017-11-17T17:59:42.051Z,45.50
2017-11-17T18:02:10.370Z,53.45
2017-11-17T18:04:37.949Z,43.67
2017-11-17T18:07:05.501Z,45.83
2017-11-17T18:09:33.089Z,44.42
2017-11-17T18:12:00.718Z,45.58
2017-11-17T18:14:28.301Z,45.65
2017-11-17T18:16:56.990Z,43.17
2017-11-17T18:19:26.165Z,41.78
2017-11-17T18:21:53.761Z,38.77
2017-11-17T18:24:21.370Z,42.67
2017-11-17T18:26:49.155Z,44.58
2017-11-17T18:29:16.801Z,39.95
2017-11-17T18:31:45.101Z,43.85
2017-11-17T18:34:12.678Z,41.60
2017-11-17T18:36:40.264Z,41.40
2017-11-17T18:39:07.831Z,47.42
2017-11-17T18:41:35.421Z,43.95
2017-11-17T18:44:03.019Z,43.40
2017-11-17T18:46:30.554Z,47.05
2017-11-17T18:48:58.171Z,42.80
2017-11-17T18:51:26.486Z,39.58
2017-11-17T18:53:54.076Z,42.25
2017-11-17T18:56:21.708Z,52.38
2017-11-17T18:58:49.386Z,42.47
2017-11-17T19:01:17.510Z,42.17
2017-11-17T19:03:45.924Z,44.88
2017-11-17T19:06:13.537Z,42.47
2017-11-17T19:08:41.084Z,40.95
2017-11-17T19:11:08.631Z,43.83
2017-11-17T19:13:36.216Z,41.15
2017-11-17T19:16:03.796Z,36.85
2017-11-17T19:18:31.385Z,44.28
2017-11-17T19:20:58.939Z,45.67
2017-11-17T19:23:26.797Z,44.10
2017-11-17T19:25:55.283Z,44.58
2017-11-17T19:28:22.956Z,46.47
2017-11-17T19:30:50.505Z,48.45
2017-11-17T19:33:18.091Z,49.65
2017-11-17T19:35:45.700Z,51.35
2017-11-17T19:38:13.341Z,52.45
2017-11-17T19:40:46.107Z,46.58
2017-11-17T19:43:13.689Z,43.10
2017-11-17T19:45:48.491Z,36.10
2017-11-17T19:48:16.120Z,46.58
2017-11-17T19:50:43.688Z,36.33
2017-11-17T19:53:11.360Z,42.65
2017-11-17T19:55:44.962Z,43.70
2017-11-17T19:58:13.378Z,37.47
2017-11-17T20:00:41.820Z,41.22
2017-11-17T20:03:09.422Z,38.22
2017-11-17T20:05:46.925Z,43.28
2017-11-17T20:08:26.363Z,38.65
2017-11-17T20:11:05.368Z,39.55
2017-11-17T20:16:40.453Z,46.30
2017-11-17T20:22:12.662Z,48.83
2017-11-17T20:24:40.207Z,45.95
2017-11-17T20:27:10.534Z,47.13
2017-11-17T20:29:38.185Z,40.90
2017-11-17T20:32:07.321Z,40.60
2017-11-17T20:34:34.865Z,43.92
2017-11-17T20:37:02.460Z,42.53
2017-11-17T20:39:30.057Z,39.72
2017-11-17T20:41:58.399Z,35.03
2017-11-17T20:44:25.945Z,39.92
2017-11-17T20:46:53.584Z,39.20
2017-11-17T20:49:21.138Z,42.13
2017-11-17T20:51:48.749Z,40.92
2017-11-17T20:54:16.344Z,41.47
2017-11-17T20:56:44.686Z,43.63
2017-11-17T20:59:12.236Z,39.50
2017-11-17T21:01:48.814Z,39.95
2017-11-17T21:04:16.705Z,40.88
2017-11-17T21:06:45.462Z,42.80
2017-11-17T21:09:13.057Z,42.22
2017-11-17T21:11:41.453Z,37.60
2017-11-17T21:14:08.997Z,40.03
2017-11-17T21:16:37.349Z,41.97
2017-11-17T21:19:04.895Z,42.40
2017-11-17T21:21:32.719Z,40.75
2017-11-17T21:24:00.263Z,41.33
2017-11-17T21:26:28.617Z,40.12
2017-11-17T21:28:56.158Z,46.17
2017-11-17T21:31:23.746Z,44.28
2017-11-17T21:33:51.289Z,40.58
2017-11-17T21:36:18.927Z,39.58
2017-11-17T21:38:46.524Z,39.15
2017-11-17T21:41:14.110Z,41.95
2017-11-17T21:43:42.467Z,41.83
2017-11-17T21:46:10.049Z,39.05
2017-11-17T21:48:38.362Z,39.30
2017-11-17T21:51:05.945Z,43.15
2017-11-17T21:53:33.494Z,42.97
2017-11-17T21:56:01.084Z,40.17
2017-11-17T21:58:28.625Z,41.05
2017-11-17T22:00:56.201Z,38.58
2017-11-17T22:03:23.752Z,41.50
2017-11-17T22:05:51.346Z,40.97
2017-11-17T22:08:19.661Z,46.90
2017-11-17T22:10:47.250Z,44.40
2017-11-17T22:13:14.795Z,40.17
2017-11-17T22:15:42.380Z,39.88
2017-11-17T22:18:09.931Z,38.00
2017-11-17T22:20:39.019Z,39.55
2017-11-17T22:23:07.329Z,42.90
2017-11-17T22:25:35.678Z,41.55
2017-11-17T22:28:03.220Z,38.60
2017-11-17T22:30:30.802Z,43.25
2017-11-17T22:32:59.104Z,38.90
2017-11-17T22:35:27.445Z,40.22
2017-11-17T22:37:54.985Z,34.50
2017-11-17T22:40:22.566Z,44.17
2017-11-17T22:42:50.109Z,39.28
2017-11-17T22:45:17.689Z,39.72
2017-11-17T22:47:45.222Z,45.95
2017-11-17T22:50:12.805Z,42.72
2017-11-17T22:52:40.343Z,47.90
2017-11-17T22:55:07.924Z,39.83
2017-11-17T22:57:35.465Z,41.55
2017-11-17T23:00:03.057Z,46.92
2017-11-17T23:02:30.597Z,46.22
2017-11-17T23:04:58.181Z,40.20
2017-11-17T23:07:25.719Z,41.15
2017-11-17T23:09:53.292Z,38.72
2017-11-17T23:12:20.843Z,44.55
2017-11-17T23:14:48.427Z,42.42
2017-11-17T23:17:15.969Z,43.87
2017-11-17T23:19:43.551Z,42.17
2017-11-17T23:22:11.862Z,41.47
2017-11-17T23:24:39.442Z,35.72
2017-11-17T23:27:06.984Z,37.10
2017-11-17T23:29:34.573Z,36.42
2017-11-17T23:32:02.115Z,38.88
2017-11-17T23:34:29.694Z,38.47
2017-11-17T23:36:57.247Z,42.20
2017-11-17T23:39:24.835Z,42.97
2017-11-17T23:41:52.389Z,41.08
2017-11-17T23:44:19.982Z,40.17
2017-11-17T23:46:48.297Z,34.40
2017-11-17T23:49:15.879Z,39.35
2017-11-17T23:51:43.422Z,38.47
2017-11-17T23:54:11.004Z,38.92
2017-11-17T23:56:38.550Z,40.72
2017-11-17T23:59:06.131Z,46.45
